sensor_id;sensor_type;location;lat;lon;timestamp;temperature;humidity
152;DHT22;68;48.792;9.164;2023-03-31T00:00:57;12.40;84.80
152;DHT22;68;48.792;9.164;2023-03-31T00:03:25;12.40;84.60
152;DHT22;68;48.792;9.164;2023-03-31T00:05:54;12.40;84.00
152;DHT22;68;48.792;9.164;2023-03-31T00:08:22;12.50;84.20
152;DHT22;68;48.792;9.164;2023-03-31T00:10:49;12.40;84.60
152;DHT22;68;48.792;9.164;2023-03-31T00:13:17;12.40;84.90
152;DHT22;68;48.792;9.164;2023-03-31T00:15:44;12.50;84.90
152;DHT22;68;48.792;9.164;2023-03-31T00:18:11;12.40;84.60
152;DHT22;68;48.792;9.164;2023-03-31T00:20:38;12.20;84.30
152;DHT22;68;48.792;9.164;2023-03-31T00:23:07;12.10;85.70
152;DHT22;68;48.792;9.164;2023-03-31T00:25:38;12.10;85.70
152;DHT22;68;48.792;9.164;2023-03-31T00:28:06;12.00;86.10
152;DHT22;68;48.792;9.164;2023-03-31T00:30:34;12.00;85.90
152;DHT22;68;48.792;9.164;2023-03-31T00:33:01;12.00;86.10
152;DHT22;68;48.792;9.164;2023-03-31T00:35:27;12.10;85.70
152;DHT22;68;48.792;9.164;2023-03-31T00:37:54;12.20;85.20
152;DHT22;68;48.792;9.164;2023-03-31T00:40:22;12.30;84.50
152;DHT22;68;48.792;9.164;2023-03-31T00:42:49;12.30;84.80
152;DHT22;68;48.792;9.164;2023-03-31T00:45:28;12.30;85.00
152;DHT22;68;48.792;9.164;2023-03-31T00:48:02;12.40;84.40
152;DHT22;68;48.792;9.164;2023-03-31T00:50:33;12.40;83.90
152;DHT22;68;48.792;9.164;2023-03-31T00:53:05;12.40;84.10
152;DHT22;68;48.792;9.164;2023-03-31T00:55:36;12.50;84.30
152;DHT22;68;48.792;9.164;2023-03-31T00:58:06;12.50;84.10
152;DHT22;68;48.792;9.164;2023-03-31T01:00:34;12.60;84.20
152;DHT22;68;48.792;9.164;2023-03-31T01:03:05;12.40;84.30
152;DHT22;68;48.792;9.164;2023-03-31T01:05:34;12.40;84.40
152;DHT22;68;48.792;9.164;2023-03-31T01:08:03;12.40;84.60
152;DHT22;68;48.792;9.164;2023-03-31T01:10:34;12.40;84.40
152;DHT22;68;48.792;9.164;2023-03-31T01:13:07;12.40;84.40
152;DHT22;68;48.792;9.164;2023-03-31T01:15:35;12.30;84.30
152;DHT22;68;48.792;9.164;2023-03-31T01:18:04;12.40;84.30
152;DHT22;68;48.792;9.164;2023-03-31T01:20:36;12.20;85.70
152;DHT22;68;48.792;9.164;2023-03-31T01:23:29;12.30;84.90
152;DHT22;68;48.792;9.164;2023-03-31T01:29:25;12.70;83.30
152;DHT22;68;48.792;9.164;2023-03-31T01:35:30;12.70;82.90
152;DHT22;68;48.792;9.164;2023-03-31T01:41:18;12.50;83.50
152;DHT22;68;48.792;9.164;2023-03-31T01:43:53;12.50;83.10
152;DHT22;68;48.792;9.164;2023-03-31T01:46:27;12.50;82.90
152;DHT22;68;48.792;9.164;2023-03-31T01:49:01;12.40;83.60
152;DHT22;68;48.792;9.164;2023-03-31T01:51:36;12.40;83.90
152;DHT22;68;48.792;9.164;2023-03-31T01:54:12;12.20;84.40
152;DHT22;68;48.792;9.164;2023-03-31T01:56:45;12.10;85.20
152;DHT22;68;48.792;9.164;2023-03-31T01:59:17;12.20;86.20
152;DHT22;68;48.792;9.164;2023-03-31T02:01:51;12.30;86.80
152;DHT22;68;48.792;9.164;2023-03-31T02:04:22;12.10;86.30
152;DHT22;68;48.792;9.164;2023-03-31T02:06:53;12.00;85.90
152;DHT22;68;48.792;9.164;2023-03-31T02:09:24;11.90;87.20
152;DHT22;68;48.792;9.164;2023-03-31T02:11:54;12.00;86.40
152;DHT22;68;48.792;9.164;2023-03-31T02:14:26;12.00;85.90
152;DHT22;68;48.792;9.164;2023-03-31T02:16:56;12.00;86.00
152;DHT22;68;48.792;9.164;2023-03-31T02:19:30;12.00;86.80
152;DHT22;68;48.792;9.164;2023-03-31T02:21:58;12.10;87.60
152;DHT22;68;48.792;9.164;2023-03-31T02:24:26;12.10;88.30
152;DHT22;68;48.792;9.164;2023-03-31T02:27:01;12.10;89.30
152;DHT22;68;48.792;9.164;2023-03-31T02:29:29;12.00;90.80
152;DHT22;68;48.792;9.164;2023-03-31T02:32:01;12.10;90.90
152;DHT22;68;48.792;9.164;2023-03-31T02:34:30;12.00;91.70
152;DHT22;68;48.792;9.164;2023-03-31T02:36:57;11.90;92.90
152;DHT22;68;48.792;9.164;2023-03-31T02:39:25;11.80;92.60
152;DHT22;68;48.792;9.164;2023-03-31T02:41:53;11.90;92.40
152;DHT22;68;48.792;9.164;2023-03-31T02:44:22;11.90;92.40
152;DHT22;68;48.792;9.164;2023-03-31T02:46:50;12.10;92.80
152;DHT22;68;48.792;9.164;2023-03-31T02:49:18;12.00;92.20
152;DHT22;68;48.792;9.164;2023-03-31T02:52:08;12.00;92.30
152;DHT22;68;48.792;9.164;2023-03-31T02:55:05;12.10;92.50
152;DHT22;68;48.792;9.164;2023-03-31T02:57:49;12.00;91.70
152;DHT22;68;48.792;9.164;2023-03-31T03:00:26;12.00;92.00
152;DHT22;68;48.792;9.164;2023-03-31T03:03:06;12.10;91.70
152;DHT22;68;48.792;9.164;2023-03-31T03:05:44;12.20;91.40
152;DHT22;68;48.792;9.164;2023-03-31T03:08:21;12.50;90.10
152;DHT22;68;48.792;9.164;2023-03-31T03:10:59;12.40;90.30
152;DHT22;68;48.792;9.164;2023-03-31T03:13:34;12.30;90.00
152;DHT22;68;48.792;9.164;2023-03-31T03:16:07;12.30;90.80
152;DHT22;68;48.792;9.164;2023-03-31T03:18:38;12.40;90.40
152;DHT22;68;48.792;9.164;2023-03-31T03:21:05;12.40;90.10
152;DHT22;68;48.792;9.164;2023-03-31T03:23:32;12.40;90.30
152;DHT22;68;48.792;9.164;2023-03-31T03:25:58;12.30;90.80
152;DHT22;68;48.792;9.164;2023-03-31T03:28:25;12.30;90.30
152;DHT22;68;48.792;9.164;2023-03-31T03:30:52;12.40;90.30
152;DHT22;68;48.792;9.164;2023-03-31T03:33:20;12.40;90.20
152;DHT22;68;48.792;9.164;2023-03-31T03:35:49;12.20;90.60
152;DHT22;68;48.792;9.164;2023-03-31T03:38:16;11.90;91.40
152;DHT22;68;48.792;9.164;2023-03-31T03:40:42;11.70;92.30
152;DHT22;68;48.792;9.164;2023-03-31T03:43:09;11.60;92.70
152;DHT22;68;48.792;9.164;2023-03-31T03:45:36;11.60;93.10
152;DHT22;68;48.792;9.164;2023-03-31T03:48:03;11.70;92.90
152;DHT22;68;48.792;9.164;2023-03-31T03:50:35;11.70;92.70
152;DHT22;68;48.792;9.164;2023-03-31T03:53:02;11.80;92.90
152;DHT22;68;48.792;9.164;2023-03-31T03:55:28;11.70;92.80
152;DHT22;68;48.792;9.164;2023-03-31T03:57:55;11.20;93.70
152;DHT22;68;48.792;9.164;2023-03-31T04:00:22;11.30;93.70
152;DHT22;68;48.792;9.164;2023-03-31T04:02:49;11.30;93.80
152;DHT22;68;48.792;9.164;2023-03-31T04:05:15;11.20;93.50
152;DHT22;68;48.792;9.164;2023-03-31T04:07:44;11.20;93.70
152;DHT22;68;48.792;9.164;2023-03-31T04:10:10;11.20;93.80
152;DHT22;68;48.792;9.164;2023-03-31T04:12:37;11.10;93.90
152;DHT22;68;48.792;9.164;2023-03-31T04:15:05;10.80;94.40
152;DHT22;68;48.792;9.164;2023-03-31T04:17:32;10.80;94.40
152;DHT22;68;48.792;9.164;2023-03-31T04:20:02;10.90;94.70
152;DHT22;68;48.792;9.164;2023-03-31T04:22:32;10.80;94.90
152;DHT22;68;48.792;9.164;2023-03-31T04:25:02;10.70;95.00
152;DHT22;68;48.792;9.164;2023-03-31T04:27:29;10.60;95.10
152;DHT22;68;48.792;9.164;2023-03-31T04:29:58;10.70;95.10
152;DHT22;68;48.792;9.164;2023-03-31T04:32:25;10.80;95.20
152;DHT22;68;48.792;9.164;2023-03-31T04:34:53;10.90;95.10
152;DHT22;68;48.792;9.164;2023-03-31T04:37:27;10.80;94.80
152;DHT22;68;48.792;9.164;2023-03-31T04:40:00;10.80;94.70
152;DHT22;68;48.792;9.164;2023-03-31T04:42:33;11.00;94.70
152;DHT22;68;48.792;9.164;2023-03-31T04:45:00;11.00;94.60
152;DHT22;68;48.792;9.164;2023-03-31T04:47:27;11.00;94.50
152;DHT22;68;48.792;9.164;2023-03-31T04:49:54;11.10;94.50
152;DHT22;68;48.792;9.164;2023-03-31T04:52:21;11.20;94.40
152;DHT22;68;48.792;9.164;2023-03-31T04:54:48;11.20;94.40
152;DHT22;68;48.792;9.164;2023-03-31T04:57:16;11.30;94.40
152;DHT22;68;48.792;9.164;2023-03-31T04:59:42;11.30;94.10
152;DHT22;68;48.792;9.164;2023-03-31T05:02:09;11.20;94.20
152;DHT22;68;48.792;9.164;2023-03-31T05:04:36;11.30;94.50
152;DHT22;68;48.792;9.164;2023-03-31T05:07:03;11.40;94.10
152;DHT22;68;48.792;9.164;2023-03-31T05:09:30;11.40;94.00
152;DHT22;68;48.792;9.164;2023-03-31T05:11:56;11.40;94.10
152;DHT22;68;48.792;9.164;2023-03-31T05:14:25;11.70;93.80
152;DHT22;68;48.792;9.164;2023-03-31T05:16:51;11.50;93.70
152;DHT22;68;48.792;9.164;2023-03-31T05:19:18;11.50;94.20
152;DHT22;68;48.792;9.164;2023-03-31T05:21:45;11.50;94.30
152;DHT22;68;48.792;9.164;2023-03-31T05:24:13;11.40;94.70
152;DHT22;68;48.792;9.164;2023-03-31T05:26:40;11.30;95.00
152;DHT22;68;48.792;9.164;2023-03-31T05:29:08;11.20;94.80
152;DHT22;68;48.792;9.164;2023-03-31T05:31:36;11.10;92.60
152;DHT22;68;48.792;9.164;2023-03-31T05:34:03;11.10;91.60
152;DHT22;68;48.792;9.164;2023-03-31T05:36:30;11.10;91.50
152;DHT22;68;48.792;9.164;2023-03-31T05:38:57;10.80;87.90
152;DHT22;68;48.792;9.164;2023-03-31T05:41:24;10.80;87.50
152;DHT22;68;48.792;9.164;2023-03-31T05:43:51;10.80;85.10
152;DHT22;68;48.792;9.164;2023-03-31T05:46:17;10.90;83.60
152;DHT22;68;48.792;9.164;2023-03-31T05:48:46;10.90;82.40
152;DHT22;68;48.792;9.164;2023-03-31T05:51:12;11.00;82.00
152;DHT22;68;48.792;9.164;2023-03-31T05:53:39;11.00;81.20
152;DHT22;68;48.792;9.164;2023-03-31T05:56:06;11.00;82.40
152;DHT22;68;48.792;9.164;2023-03-31T05:58:34;10.80;80.50
152;DHT22;68;48.792;9.164;2023-03-31T06:01:03;10.70;76.80
152;DHT22;68;48.792;9.164;2023-03-31T06:03:31;10.60;75.30
152;DHT22;68;48.792;9.164;2023-03-31T06:05:59;10.80;74.20
152;DHT22;68;48.792;9.164;2023-03-31T06:08:27;10.70;73.60
152;DHT22;68;48.792;9.164;2023-03-31T06:10:54;10.80;74.00
152;DHT22;68;48.792;9.164;2023-03-31T06:13:21;10.70;75.10
152;DHT22;68;48.792;9.164;2023-03-31T06:15:52;10.80;74.70
152;DHT22;68;48.792;9.164;2023-03-31T06:18:19;10.60;70.90
152;DHT22;68;48.792;9.164;2023-03-31T06:20:46;10.70;70.50
152;DHT22;68;48.792;9.164;2023-03-31T06:23:14;10.80;68.80
152;DHT22;68;48.792;9.164;2023-03-31T06:25:41;11.00;71.50
152;DHT22;68;48.792;9.164;2023-03-31T06:28:08;10.90;72.30
152;DHT22;68;48.792;9.164;2023-03-31T06:30:35;11.10;76.90
152;DHT22;68;48.792;9.164;2023-03-31T06:33:01;11.20;76.90
152;DHT22;68;48.792;9.164;2023-03-31T06:35:28;11.10;77.80
152;DHT22;68;48.792;9.164;2023-03-31T06:37:55;11.10;78.30
152;DHT22;68;48.792;9.164;2023-03-31T06:40:23;11.20;77.90
152;DHT22;68;48.792;9.164;2023-03-31T06:42:51;11.20;79.40
152;DHT22;68;48.792;9.164;2023-03-31T06:45:17;11.20;79.70
152;DHT22;68;48.792;9.164;2023-03-31T06:47:44;11.10;81.60
152;DHT22;68;48.792;9.164;2023-03-31T06:50:11;11.10;81.40
152;DHT22;68;48.792;9.164;2023-03-31T06:52:38;10.90;80.10
152;DHT22;68;48.792;9.164;2023-03-31T06:55:07;10.80;78.40
152;DHT22;68;48.792;9.164;2023-03-31T06:57:35;10.80;75.00
152;DHT22;68;48.792;9.164;2023-03-31T07:00:03;10.80;74.50
152;DHT22;68;48.792;9.164;2023-03-31T07:02:32;10.80;74.40
152;DHT22;68;48.792;9.164;2023-03-31T07:04:58;10.60;72.70
152;DHT22;68;48.792;9.164;2023-03-31T07:07:25;10.50;69.30
152;DHT22;68;48.792;9.164;2023-03-31T07:09:52;10.50;66.70
152;DHT22;68;48.792;9.164;2023-03-31T07:12:19;10.20;58.30
152;DHT22;68;48.792;9.164;2023-03-31T07:14:47;10.20;57.40
152;DHT22;68;48.792;9.164;2023-03-31T07:17:14;10.00;48.20
152;DHT22;68;48.792;9.164;2023-03-31T07:19:41;9.90;42.90
152;DHT22;68;48.792;9.164;2023-03-31T07:22:12;9.90;42.90
152;DHT22;68;48.792;9.164;2023-03-31T07:24:39;10.00;40.00
152;DHT22;68;48.792;9.164;2023-03-31T07:27:06;10.00;41.20
152;DHT22;68;48.792;9.164;2023-03-31T07:29:32;10.00;44.30
152;DHT22;68;48.792;9.164;2023-03-31T07:32:01;10.00;44.50
152;DHT22;68;48.792;9.164;2023-03-31T07:34:27;10.00;50.00
152;DHT22;68;48.792;9.164;2023-03-31T07:36:54;10.00;52.20
152;DHT22;68;48.792;9.164;2023-03-31T07:39:21;10.00;53.60
152;DHT22;68;48.792;9.164;2023-03-31T07:41:48;10.30;54.20
152;DHT22;68;48.792;9.164;2023-03-31T07:44:15;10.30;54.60
152;DHT22;68;48.792;9.164;2023-03-31T07:46:43;10.30;53.90
152;DHT22;68;48.792;9.164;2023-03-31T07:49:11;10.40;52.30
152;DHT22;68;48.792;9.164;2023-03-31T07:51:40;10.60;49.60
152;DHT22;68;48.792;9.164;2023-03-31T07:54:07;10.80;56.70
152;DHT22;68;48.792;9.164;2023-03-31T07:56:34;10.80;81.80
152;DHT22;68;48.792;9.164;2023-03-31T07:59:00;10.80;82.70
152;DHT22;68;48.792;9.164;2023-03-31T08:01:27;10.80;84.10
152;DHT22;68;48.792;9.164;2023-03-31T08:03:54;10.80;83.80
152;DHT22;68;48.792;9.164;2023-03-31T08:06:24;10.90;89.40
152;DHT22;68;48.792;9.164;2023-03-31T08:08:51;10.90;90.20
152;DHT22;68;48.792;9.164;2023-03-31T08:11:18;11.20;88.70
152;DHT22;68;48.792;9.164;2023-03-31T08:13:45;11.30;90.80
152;DHT22;68;48.792;9.164;2023-03-31T08:16:12;11.40;89.70
152;DHT22;68;48.792;9.164;2023-03-31T08:18:39;11.50;92.00
152;DHT22;68;48.792;9.164;2023-03-31T08:21:06;11.70;93.30
152;DHT22;68;48.792;9.164;2023-03-31T08:23:35;12.00;93.80
152;DHT22;68;48.792;9.164;2023-03-31T08:26:10;12.00;93.90
152;DHT22;68;48.792;9.164;2023-03-31T08:28:37;12.30;95.00
152;DHT22;68;48.792;9.164;2023-03-31T08:31:05;12.30;95.00
152;DHT22;68;48.792;9.164;2023-03-31T08:33:32;12.50;95.00
152;DHT22;68;48.792;9.164;2023-03-31T08:36:03;12.50;94.80
152;DHT22;68;48.792;9.164;2023-03-31T08:38:34;12.50;94.00
152;DHT22;68;48.792;9.164;2023-03-31T08:41:03;12.60;94.20
152;DHT22;68;48.792;9.164;2023-03-31T08:43:33;12.70;94.80
152;DHT22;68;48.792;9.164;2023-03-31T08:46:03;13.00;94.30
152;DHT22;68;48.792;9.164;2023-03-31T08:48:33;13.20;94.50
152;DHT22;68;48.792;9.164;2023-03-31T08:51:04;13.30;93.20
152;DHT22;68;48.792;9.164;2023-03-31T08:53:38;13.50;92.40
152;DHT22;68;48.792;9.164;2023-03-31T08:56:12;13.60;91.60
152;DHT22;68;48.792;9.164;2023-03-31T08:58:43;13.60;91.70
152;DHT22;68;48.792;9.164;2023-03-31T09:01:17;13.60;91.00
152;DHT22;68;48.792;9.164;2023-03-31T09:03:50;13.70;92.20
152;DHT22;68;48.792;9.164;2023-03-31T09:06:26;13.80;90.40
152;DHT22;68;48.792;9.164;2023-03-31T09:09:01;13.90;89.20
152;DHT22;68;48.792;9.164;2023-03-31T09:11:32;14.00;87.90
152;DHT22;68;48.792;9.164;2023-03-31T09:16:55;14.10;85.00
152;DHT22;68;48.792;9.164;2023-03-31T09:19:30;14.20;86.10
152;DHT22;68;48.792;9.164;2023-03-31T09:21:59;14.40;83.50
152;DHT22;68;48.792;9.164;2023-03-31T09:24:31;14.40;78.20
152;DHT22;68;48.792;9.164;2023-03-31T09:27:00;14.40;78.50
152;DHT22;68;48.792;9.164;2023-03-31T09:29:30;14.20;79.50
152;DHT22;68;48.792;9.164;2023-03-31T09:32:01;14.20;79.40
152;DHT22;68;48.792;9.164;2023-03-31T09:34:33;14.20;81.10
152;DHT22;68;48.792;9.164;2023-03-31T09:37:00;14.10;80.30
152;DHT22;68;48.792;9.164;2023-03-31T09:39:29;13.80;80.50
152;DHT22;68;48.792;9.164;2023-03-31T09:41:55;13.80;80.70
152;DHT22;68;48.792;9.164;2023-03-31T09:44:25;13.80;80.30
152;DHT22;68;48.792;9.164;2023-03-31T09:46:54;13.80;81.50
152;DHT22;68;48.792;9.164;2023-03-31T09:49:23;13.90;81.40
152;DHT22;68;48.792;9.164;2023-03-31T09:52:00;14.00;81.50
152;DHT22;68;48.792;9.164;2023-03-31T09:54:34;14.20;79.50
152;DHT22;68;48.792;9.164;2023-03-31T09:57:12;14.30;79.30
152;DHT22;68;48.792;9.164;2023-03-31T09:59:39;14.50;76.80
152;DHT22;68;48.792;9.164;2023-03-31T10:05:03;14.90;75.90
152;DHT22;68;48.792;9.164;2023-03-31T10:07:32;15.30;76.60
152;DHT22;68;48.792;9.164;2023-03-31T10:10:01;15.60;74.50
152;DHT22;68;48.792;9.164;2023-03-31T10:12:29;15.70;74.30
152;DHT22;68;48.792;9.164;2023-03-31T10:15:11;15.70;73.40
152;DHT22;68;48.792;9.164;2023-03-31T10:17:43;15.80;73.50
152;DHT22;68;48.792;9.164;2023-03-31T10:20:20;15.80;74.00
152;DHT22;68;48.792;9.164;2023-03-31T10:22:47;15.90;72.70
152;DHT22;68;48.792;9.164;2023-03-31T10:25:17;16.00;72.50
152;DHT22;68;48.792;9.164;2023-03-31T10:27:47;16.10;71.90
152;DHT22;68;48.792;9.164;2023-03-31T10:30:21;16.30;69.70
152;DHT22;68;48.792;9.164;2023-03-31T10:32:48;16.20;69.10
152;DHT22;68;48.792;9.164;2023-03-31T10:35:23;16.00;69.20
152;DHT22;68;48.792;9.164;2023-03-31T10:37:54;16.10;69.10
152;DHT22;68;48.792;9.164;2023-03-31T10:40:25;16.30;69.90
152;DHT22;68;48.792;9.164;2023-03-31T10:43:02;16.60;69.90
152;DHT22;68;48.792;9.164;2023-03-31T10:45:36;16.80;68.50
152;DHT22;68;48.792;9.164;2023-03-31T10:48:03;16.90;66.40
152;DHT22;68;48.792;9.164;2023-03-31T10:50:31;16.70;66.00
152;DHT22;68;48.792;9.164;2023-03-31T10:53:03;16.70;65.30
152;DHT22;68;48.792;9.164;2023-03-31T10:55:36;16.50;66.20
152;DHT22;68;48.792;9.164;2023-03-31T10:58:12;16.50;65.00
152;DHT22;68;48.792;9.164;2023-03-31T11:00:55;16.30;68.20
152;DHT22;68;48.792;9.164;2023-03-31T11:03:50;16.10;65.50
152;DHT22;68;48.792;9.164;2023-03-31T11:06:25;15.90;67.30
152;DHT22;68;48.792;9.164;2023-03-31T11:09:03;15.90;68.50
152;DHT22;68;48.792;9.164;2023-03-31T11:11:59;16.00;68.40
152;DHT22;68;48.792;9.164;2023-03-31T11:14:51;15.70;69.90
152;DHT22;68;48.792;9.164;2023-03-31T11:17:26;15.50;69.30
152;DHT22;68;48.792;9.164;2023-03-31T11:20:01;15.30;73.60
152;DHT22;68;48.792;9.164;2023-03-31T11:22:36;14.70;76.60
152;DHT22;68;48.792;9.164;2023-03-31T11:25:22;13.60;83.00
152;DHT22;68;48.792;9.164;2023-03-31T11:28:16;11.30;93.00
152;DHT22;68;48.792;9.164;2023-03-31T11:30:50;10.00;86.40
152;DHT22;68;48.792;9.164;2023-03-31T11:33:39;9.80;83.30
152;DHT22;68;48.792;9.164;2023-03-31T11:36:32;9.60;84.20
152;DHT22;68;48.792;9.164;2023-03-31T11:39:16;9.60;77.50
152;DHT22;68;48.792;9.164;2023-03-31T11:41:49;9.60;82.90
152;DHT22;68;48.792;9.164;2023-03-31T11:44:18;9.60;85.80
152;DHT22;68;48.792;9.164;2023-03-31T11:46:48;9.60;84.60
152;DHT22;68;48.792;9.164;2023-03-31T11:49:20;9.70;83.40
152;DHT22;68;48.792;9.164;2023-03-31T11:51:52;9.70;90.00
152;DHT22;68;48.792;9.164;2023-03-31T11:54:25;9.80;88.80
152;DHT22;68;48.792;9.164;2023-03-31T11:56:54;9.90;88.30
152;DHT22;68;48.792;9.164;2023-03-31T11:59:24;9.90;88.50
152;DHT22;68;48.792;9.164;2023-03-31T12:01:59;10.00;91.90
152;DHT22;68;48.792;9.164;2023-03-31T12:04:33;10.20;91.60
152;DHT22;68;48.792;9.164;2023-03-31T12:07:04;10.50;93.50
152;DHT22;68;48.792;9.164;2023-03-31T12:09:37;12.30;96.80
152;DHT22;68;48.792;9.164;2023-03-31T12:12:12;12.30;95.60
152;DHT22;68;48.792;9.164;2023-03-31T12:14:47;14.00;92.50
152;DHT22;68;48.792;9.164;2023-03-31T12:17:17;15.00;85.50
152;DHT22;68;48.792;9.164;2023-03-31T12:19:47;16.00;82.70
152;DHT22;68;48.792;9.164;2023-03-31T12:22:18;15.30;78.20
152;DHT22;68;48.792;9.164;2023-03-31T12:24:47;14.40;82.10
152;DHT22;68;48.792;9.164;2023-03-31T12:27:16;14.50;81.80
152;DHT22;68;48.792;9.164;2023-03-31T12:29:49;14.50;80.10
152;DHT22;68;48.792;9.164;2023-03-31T12:32:21;14.60;80.40
152;DHT22;68;48.792;9.164;2023-03-31T12:34:53;15.10;79.30
152;DHT22;68;48.792;9.164;2023-03-31T12:37:51;15.60;75.30
152;DHT22;68;48.792;9.164;2023-03-31T12:40:29;16.70;77.30
152;DHT22;68;48.792;9.164;2023-03-31T12:43:15;16.70;72.80
152;DHT22;68;48.792;9.164;2023-03-31T12:45:52;17.00;71.60
152;DHT22;68;48.792;9.164;2023-03-31T12:48:42;17.20;69.90
152;DHT22;68;48.792;9.164;2023-03-31T12:51:26;17.40;71.10
152;DHT22;68;48.792;9.164;2023-03-31T12:54:13;16.60;70.00
152;DHT22;68;48.792;9.164;2023-03-31T12:57:06;16.30;71.10
152;DHT22;68;48.792;9.164;2023-03-31T12:59:40;16.70;70.80
152;DHT22;68;48.792;9.164;2023-03-31T13:02:24;16.80;69.70
152;DHT22;68;48.792;9.164;2023-03-31T13:04:51;16.20;70.40
152;DHT22;68;48.792;9.164;2023-03-31T13:07:39;16.10;72.80
152;DHT22;68;48.792;9.164;2023-03-31T13:10:27;16.20;72.20
152;DHT22;68;48.792;9.164;2023-03-31T13:13:00;16.00;71.60
152;DHT22;68;48.792;9.164;2023-03-31T13:15:27;15.70;71.90
152;DHT22;68;48.792;9.164;2023-03-31T13:17:58;15.20;75.70
152;DHT22;68;48.792;9.164;2023-03-31T13:20:35;14.00;79.80
152;DHT22;68;48.792;9.164;2023-03-31T13:23:15;13.20;84.80
152;DHT22;68;48.792;9.164;2023-03-31T13:25:45;12.40;89.00
152;DHT22;68;48.792;9.164;2023-03-31T13:31:10;11.20;94.40
152;DHT22;68;48.792;9.164;2023-03-31T13:33:51;11.20;94.70
152;DHT22;68;48.792;9.164;2023-03-31T13:39:51;11.20;94.10
152;DHT22;68;48.792;9.164;2023-03-31T13:42:51;11.20;94.90
152;DHT22;68;48.792;9.164;2023-03-31T13:45:33;11.20;94.30
152;DHT22;68;48.792;9.164;2023-03-31T13:48:17;11.20;94.00
152;DHT22;68;48.792;9.164;2023-03-31T13:54:11;10.70;94.80
152;DHT22;68;48.792;9.164;2023-03-31T13:57:16;10.40;94.70
152;DHT22;68;48.792;9.164;2023-03-31T14:00:07;10.20;95.00
152;DHT22;68;48.792;9.164;2023-03-31T14:03:03;10.20;94.80
152;DHT22;68;48.792;9.164;2023-03-31T14:05:33;10.20;94.60
152;DHT22;68;48.792;9.164;2023-03-31T14:08:04;10.10;94.50
152;DHT22;68;48.792;9.164;2023-03-31T14:10:34;10.20;93.00
152;DHT22;68;48.792;9.164;2023-03-31T14:13:06;10.10;94.30
152;DHT22;68;48.792;9.164;2023-03-31T14:15:35;10.30;93.70
152;DHT22;68;48.792;9.164;2023-03-31T14:18:04;10.80;93.20
152;DHT22;68;48.792;9.164;2023-03-31T14:20:36;11.20;94.90
152;DHT22;68;48.792;9.164;2023-03-31T14:23:29;11.70;94.50
152;DHT22;68;48.792;9.164;2023-03-31T14:26:03;11.70;94.20
152;DHT22;68;48.792;9.164;2023-03-31T14:28:52;11.90;92.90
152;DHT22;68;48.792;9.164;2023-03-31T14:31:25;11.90;92.60
152;DHT22;68;48.792;9.164;2023-03-31T14:34:16;12.00;91.70
152;DHT22;68;48.792;9.164;2023-03-31T14:36:50;12.00;89.90
152;DHT22;68;48.792;9.164;2023-03-31T14:39:24;12.00;89.80
152;DHT22;68;48.792;9.164;2023-03-31T14:41:56;12.10;90.30
152;DHT22;68;48.792;9.164;2023-03-31T14:44:25;12.10;89.80
152;DHT22;68;48.792;9.164;2023-03-31T14:46:55;12.10;88.30
152;DHT22;68;48.792;9.164;2023-03-31T14:49:25;12.10;87.20
152;DHT22;68;48.792;9.164;2023-03-31T14:51:54;12.20;86.60
152;DHT22;68;48.792;9.164;2023-03-31T14:54:24;12.30;87.80
152;DHT22;68;48.792;9.164;2023-03-31T14:56:54;12.40;87.30
152;DHT22;68;48.792;9.164;2023-03-31T14:59:25;12.40;86.20
152;DHT22;68;48.792;9.164;2023-03-31T15:01:56;12.30;86.30
152;DHT22;68;48.792;9.164;2023-03-31T15:04:25;12.20;86.60
152;DHT22;68;48.792;9.164;2023-03-31T15:06:53;12.20;86.60
152;DHT22;68;48.792;9.164;2023-03-31T15:09:22;12.20;86.90
152;DHT22;68;48.792;9.164;2023-03-31T15:11:55;12.20;86.70
152;DHT22;68;48.792;9.164;2023-03-31T15:14:28;12.20;87.40
152;DHT22;68;48.792;9.164;2023-03-31T15:16:55;12.20;86.40
152;DHT22;68;48.792;9.164;2023-03-31T15:19:23;12.20;86.60
152;DHT22;68;48.792;9.164;2023-03-31T15:21:54;12.20;86.90
152;DHT22;68;48.792;9.164;2023-03-31T15:24:21;12.10;86.30
152;DHT22;68;48.792;9.164;2023-03-31T15:26:52;12.10;86.30
152;DHT22;68;48.792;9.164;2023-03-31T15:29:25;12.10;86.50
152;DHT22;68;48.792;9.164;2023-03-31T15:31:55;12.20;85.00
152;DHT22;68;48.792;9.164;2023-03-31T15:34:25;12.30;85.40
152;DHT22;68;48.792;9.164;2023-03-31T15:36:54;12.40;85.30
152;DHT22;68;48.792;9.164;2023-03-31T15:39:21;12.40;85.00
152;DHT22;68;48.792;9.164;2023-03-31T15:41:49;12.60;84.50
152;DHT22;68;48.792;9.164;2023-03-31T15:44:35;12.60;83.70
152;DHT22;68;48.792;9.164;2023-03-31T15:47:07;12.70;84.00
152;DHT22;68;48.792;9.164;2023-03-31T15:49:34;12.60;84.10
152;DHT22;68;48.792;9.164;2023-03-31T15:52:01;12.70;84.10
152;DHT22;68;48.792;9.164;2023-03-31T15:54:31;12.60;83.80
152;DHT22;68;48.792;9.164;2023-03-31T15:57:00;12.40;83.60
152;DHT22;68;48.792;9.164;2023-03-31T15:59:28;12.30;82.80
152;DHT22;68;48.792;9.164;2023-03-31T16:01:57;12.40;83.10
152;DHT22;68;48.792;9.164;2023-03-31T16:04:30;12.40;83.90
152;DHT22;68;48.792;9.164;2023-03-31T16:06:59;12.40;84.10
152;DHT22;68;48.792;9.164;2023-03-31T16:09:39;12.40;83.50
152;DHT22;68;48.792;9.164;2023-03-31T16:12:13;12.50;83.20
152;DHT22;68;48.792;9.164;2023-03-31T16:14:45;12.40;83.00
152;DHT22;68;48.792;9.164;2023-03-31T16:17:21;12.50;83.10
152;DHT22;68;48.792;9.164;2023-03-31T16:19:51;12.40;83.70
152;DHT22;68;48.792;9.164;2023-03-31T16:22:21;12.40;84.10
152;DHT22;68;48.792;9.164;2023-03-31T16:24:48;12.40;83.40
152;DHT22;68;48.792;9.164;2023-03-31T16:27:16;12.20;83.80
152;DHT22;68;48.792;9.164;2023-03-31T16:29:43;12.20;83.80
152;DHT22;68;48.792;9.164;2023-03-31T16:32:11;11.90;83.00
152;DHT22;68;48.792;9.164;2023-03-31T16:34:54;11.70;83.70
152;DHT22;68;48.792;9.164;2023-03-31T16:37:21;11.70;84.20
152;DHT22;68;48.792;9.164;2023-03-31T16:39:48;11.50;87.60
152;DHT22;68;48.792;9.164;2023-03-31T16:42:15;11.40;88.30
152;DHT22;68;48.792;9.164;2023-03-31T16:44:41;11.40;88.50
152;DHT22;68;48.792;9.164;2023-03-31T16:47:08;11.40;88.00
152;DHT22;68;48.792;9.164;2023-03-31T16:49:35;11.30;87.40
152;DHT22;68;48.792;9.164;2023-03-31T16:52:03;11.40;87.50
152;DHT22;68;48.792;9.164;2023-03-31T16:54:31;11.30;87.50
152;DHT22;68;48.792;9.164;2023-03-31T16:56:58;11.10;86.80
152;DHT22;68;48.792;9.164;2023-03-31T16:59:25;11.10;87.20
152;DHT22;68;48.792;9.164;2023-03-31T17:01:52;11.10;87.40
152;DHT22;68;48.792;9.164;2023-03-31T17:04:19;11.10;87.90
152;DHT22;68;48.792;9.164;2023-03-31T17:06:47;11.00;86.20
152;DHT22;68;48.792;9.164;2023-03-31T17:09:15;11.00;87.00
152;DHT22;68;48.792;9.164;2023-03-31T17:11:41;11.10;87.10
152;DHT22;68;48.792;9.164;2023-03-31T17:14:08;11.00;87.10
152;DHT22;68;48.792;9.164;2023-03-31T17:16:36;10.90;87.00
152;DHT22;68;48.792;9.164;2023-03-31T17:19:03;11.00;87.70
152;DHT22;68;48.792;9.164;2023-03-31T17:21:29;10.80;88.20
152;DHT22;68;48.792;9.164;2023-03-31T17:23:57;10.80;88.50
152;DHT22;68;48.792;9.164;2023-03-31T17:26:25;10.70;88.30
152;DHT22;68;48.792;9.164;2023-03-31T17:28:52;10.80;88.30
152;DHT22;68;48.792;9.164;2023-03-31T17:31:20;10.80;87.50
152;DHT22;68;48.792;9.164;2023-03-31T17:33:47;10.80;87.60
152;DHT22;68;48.792;9.164;2023-03-31T17:36:14;10.70;87.50
152;DHT22;68;48.792;9.164;2023-03-31T17:38:41;10.60;88.30
152;DHT22;68;48.792;9.164;2023-03-31T17:41:10;10.60;88.20
152;DHT22;68;48.792;9.164;2023-03-31T17:43:43;10.70;88.10